Time;durP1;ratioP1;P1;durP2;ratioP2;P2;SDS_P1;SDS_P2;PMS_P1;PMS_P2;Temp;Humidity;BMP_temperature;BMP_pressure;BME280_temperature;BME280_humidity;BME280_pressure;Samples;Min_cycle;Max_cycle;Signal;HPM_P1;HPM_P2
2022/08/07 00:00:19;;;;;;;6.93;4.28;;;;;;;;;;10093249;23;20451;-84
2022/08/07 00:04:39;;;;;;;7.35;4.18;;;;;;;;;;10091971;23;20053;-84
2022/08/07 00:08:42;;;;;;;6.88;4.82;;;;;;;;;;10093216;23;20084;-85
2022/08/07 00:12:47;;;;;;;8.00;4.55;;;;;;;;;;10092673;23;20022;-90
2022/08/07 00:16:49;;;;;;;7.50;4.60;;;;;;;;;;10092371;23;20452;-85
2022/08/07 00:20:52;;;;;;;6.47;4.00;;;;;;;;;;10092943;23;20028;-84
2022/08/07 00:24:55;;;;;;;7.57;4.35;;;;;;;;;;10092701;23;20022;-84
2022/08/07 00:28:59;;;;;;;5.75;4.10;;;;;;;;;;10093139;23;20090;-84
2022/08/07 00:33:02;;;;;;;8.52;4.53;;;;;;;;;;10092162;23;20074;-84
2022/08/07 00:37:04;;;;;;;7.30;4.30;;;;;;;;;;10093571;23;20022;-84
2022/08/07 00:41:08;;;;;;;11.30;4.63;;;;;;;;;;10093329;23;20033;-84
2022/08/07 00:45:15;;;;;;;5.30;3.83;;;;;;;;;;10092903;23;20019;-86
2022/08/07 00:49:18;;;;;;;8.75;4.80;;;;;;;;;;10092500;23;20101;-86
2022/08/07 00:53:20;;;;;;;6.40;4.30;;;;;;;;;;10092675;23;20022;-84
2022/08/07 00:57:24;;;;;;;7.32;4.10;;;;;;;;;;10092054;23;20508;-86
2022/08/07 01:01:29;;;;;;;5.90;4.60;;;;;;;;;;10092717;23;20085;-84
2022/08/07 01:05:32;;;;;;;6.22;4.82;;;;;;;;;;10092521;23;20030;-85
2022/08/07 01:09:35;;;;;;;8.10;5.03;;;;;;;;;;10092643;23;20046;-87
2022/08/07 01:13:38;;;;;;;6.43;4.57;;;;;;;;;;10092988;23;20443;-83
2022/08/07 01:17:42;;;;;;;10.30;5.15;;;;;;;;;;10093252;23;20030;-83
2022/08/07 01:21:47;;;;;;;8.93;5.60;;;;;;;;;;10092995;23;20046;-83
2022/08/07 01:25:50;;;;;;;9.32;5.80;;;;;;;;;;10109048;23;20018;-83
2022/08/07 01:29:52;;;;;;;7.55;5.15;;;;;;;;;;10092770;23;20388;-83
2022/08/07 01:33:57;;;;;;;7.60;5.38;;;;;;;;;;10093138;23;20098;-84
2022/08/07 01:38:02;;;;;;;8.50;5.63;;;;;;;;;;10092664;23;20110;-87
2022/08/07 01:42:05;;;;;;;7.40;5.53;;;;;;;;;;10092569;23;20050;-83
2022/08/07 01:46:07;;;;;;;8.50;5.13;;;;;;;;;;10092259;23;20022;-83
2022/08/07 01:50:10;;;;;;;9.10;6.63;;;;;;;;;;10091416;23;20070;-84
2022/08/07 01:54:16;;;;;;;6.90;5.50;;;;;;;;;;10090700;23;20026;-83
2022/08/07 01:58:21;;;;;;;8.98;5.63;;;;;;;;;;10107907;23;20414;-82
2022/08/07 02:02:29;;;;;;;6.45;4.60;;;;;;;;;;10107806;23;20333;-83
2022/08/07 02:06:34;;;;;;;8.80;5.80;;;;;;;;;;10106757;23;20022;-83
2022/08/07 02:10:40;;;;;;;7.32;5.78;;;;;;;;;;10107928;23;20022;-83
2022/08/07 02:14:43;;;;;;;7.40;5.00;;;;;;;;;;10107418;23;20022;-89
2022/08/07 02:18:47;;;;;;;9.02;5.40;;;;;;;;;;10091525;23;20058;-83
2022/08/07 02:22:53;;;;;;;7.32;5.30;;;;;;;;;;10091432;23;20041;-83
2022/08/07 02:26:58;;;;;;;7.30;5.20;;;;;;;;;;10107178;23;20054;-83
2022/08/07 02:31:03;;;;;;;7.47;5.60;;;;;;;;;;10107878;23;20041;-84
2022/08/07 02:35:09;;;;;;;6.78;5.63;;;;;;;;;;10091311;23;20023;-85
2022/08/07 02:39:13;;;;;;;10.00;7.13;;;;;;;;;;10107836;23;20018;-86
2022/08/07 02:43:18;;;;;;;12.23;9.98;;;;;;;;;;10090968;23;20095;-85
2022/08/07 02:47:22;;;;;;;10.35;7.55;;;;;;;;;;10107396;23;20018;-85
2022/08/07 02:51:27;;;;;;;9.50;6.40;;;;;;;;;;10090788;23;20018;-86
2022/08/07 02:55:34;;;;;;;21.75;12.50;;;;;;;;;;10105876;23;20022;-85
2022/08/07 02:59:40;;;;;;;17.35;11.07;;;;;;;;;;10090726;23;20018;-85
2022/08/07 03:03:43;;;;;;;14.75;9.45;;;;;;;;;;10091064;23;20507;-82
2022/08/07 03:07:47;;;;;;;10.75;6.80;;;;;;;;;;10090812;23;20022;-84
2022/08/07 03:11:51;;;;;;;13.35;9.57;;;;;;;;;;10090463;23;20066;-84
2022/08/07 03:15:55;;;;;;;13.40;10.85;;;;;;;;;;10090959;23;20448;-84
2022/08/07 03:19:58;;;;;;;17.95;13.00;;;;;;;;;;10090639;23;20026;-83
2022/08/07 03:24:02;;;;;;;15.18;8.60;;;;;;;;;;10090078;23;20023;-83
2022/08/07 03:28:06;;;;;;;7.95;5.45;;;;;;;;;;10090567;23;20365;-83
2022/08/07 03:32:12;;;;;;;13.10;8.00;;;;;;;;;;10091256;23;20082;-85
2022/08/07 03:36:16;;;;;;;8.93;5.90;;;;;;;;;;10107655;23;20029;-88
2022/08/07 03:40:19;;;;;;;9.55;5.97;;;;;;;;;;10091772;23;20348;-83
2022/08/07 03:44:22;;;;;;;8.25;6.35;;;;;;;;;;10091199;23;20029;-83
2022/08/07 03:48:28;;;;;;;8.50;6.18;;;;;;;;;;10091302;23;20393;-83
2022/08/07 03:52:32;;;;;;;8.13;6.68;;;;;;;;;;10090906;23;20029;-84
2022/08/07 03:56:36;;;;;;;8.65;6.30;;;;;;;;;;10091284;23;20042;-83
2022/08/07 04:00:42;;;;;;;9.90;7.55;;;;;;;;;;10090945;23;20019;-83
2022/08/07 04:04:46;;;;;;;8.90;6.88;;;;;;;;;;10106848;23;20025;-84
2022/08/07 04:08:49;;;;;;;9.20;7.68;;;;;;;;;;10092001;23;20038;-85
2022/08/07 04:12:52;;;;;;;7.80;6.50;;;;;;;;;;10093969;23;20018;-84
2022/08/07 04:16:55;;;;;;;7.70;5.95;;;;;;;;;;10092530;23;20180;-83
2022/08/07 04:20:59;;;;;;;8.85;6.00;;;;;;;;;;10093793;23;20025;-83
2022/08/07 04:25:02;;;;;;;8.93;7.10;;;;;;;;;;10093045;23;20026;-85
2022/08/07 04:29:07;;;;;;;9.45;7.72;;;;;;;;;;10092759;23;20025;-83
2022/08/07 04:33:11;;;;;;;9.63;8.57;;;;;;;;;;10093450;23;20018;-84
2022/08/07 04:37:15;;;;;;;13.05;9.63;;;;;;;;;;10093278;23;20077;-84
2022/08/07 04:41:17;;;;;;;12.80;8.98;;;;;;;;;;10093337;23;20022;-87
2022/08/07 04:45:20;;;;;;;16.65;8.30;;;;;;;;;;10092821;23;20026;-83
2022/08/07 04:49:31;;;;;;;11.48;6.35;;;;;;;;;;10091987;23;20022;-83
2022/08/07 04:53:42;;;;;;;7.80;6.45;;;;;;;;;;10098979;23;20109;-83
2022/08/07 04:57:51;;;;;;;30.38;21.65;;;;;;;;;;10108555;23;20424;-82
2022/08/07 05:02:02;;;;;;;17.60;8.57;;;;;;;;;;10108273;23;20023;-83
2022/08/07 05:06:09;;;;;;;10.43;6.60;;;;;;;;;;10108687;23;20022;-85
2022/08/07 05:10:19;;;;;;;7.22;5.60;;;;;;;;;;10108604;23;20022;-84
2022/08/07 05:14:27;;;;;;;7.15;5.55;;;;;;;;;;10107040;23;20018;-85
2022/08/07 05:18:32;;;;;;;8.63;5.80;;;;;;;;;;10107483;23;20029;-84
2022/08/07 05:22:36;;;;;;;7.65;5.70;;;;;;;;;;10092322;23;20022;-87
2022/08/07 05:26:41;;;;;;;9.18;6.50;;;;;;;;;;10091328;23;20447;-85
2022/08/07 05:30:46;;;;;;;7.13;5.40;;;;;;;;;;10108639;23;20023;-85
2022/08/07 05:34:49;;;;;;;7.40;5.78;;;;;;;;;;10091791;23;20018;-85
2022/08/07 05:38:53;;;;;;;7.60;6.03;;;;;;;;;;10091984;23;20025;-86
2022/08/07 05:42:58;;;;;;;12.50;6.15;;;;;;;;;;10091718;23;20022;-84
2022/08/07 05:47:01;;;;;;;6.45;4.70;;;;;;;;;;10091473;23;20026;-85
2022/08/07 05:51:06;;;;;;;7.15;5.03;;;;;;;;;;10091914;23;20025;-85
2022/08/07 05:55:09;;;;;;;6.78;4.45;;;;;;;;;;10091324;23;20085;-86
2022/08/07 05:59:17;;;;;;;8.05;3.13;;;;;;;;;;10091805;23;20045;-86
2022/08/07 06:03:22;;;;;;;7.40;3.20;;;;;;;;;;10107902;23;20022;-85
2022/08/07 06:07:25;;;;;;;7.45;3.00;;;;;;;;;;10091169;23;20018;-87
2022/08/07 06:11:28;;;;;;;6.25;3.20;;;;;;;;;;10091091;23;20042;-86
2022/08/07 06:15:36;;;;;;;7.07;3.40;;;;;;;;;;10089263;23;20105;-86
2022/08/07 06:19:40;;;;;;;4.00;2.38;;;;;;;;;;10107290;23;20029;-86
2022/08/07 06:23:44;;;;;;;5.72;2.47;;;;;;;;;;10090772;23;20027;-87
2022/08/07 06:27:47;;;;;;;4.95;2.30;;;;;;;;;;10090447;23;20022;-87
2022/08/07 06:31:51;;;;;;;6.15;2.22;;;;;;;;;;10090618;23;20352;-87
2022/08/07 06:35:54;;;;;;;1.92;1.77;;;;;;;;;;10090071;23;20451;-88
2022/08/07 06:39:57;;;;;;;2.45;1.67;;;;;;;;;;10091994;23;20025;-86
2022/08/07 06:44:02;;;;;;;2.47;1.50;;;;;;;;;;10091170;23;20439;-89
2022/08/07 06:48:07;;;;;;;3.50;2.17;;;;;;;;;;10092090;23;20436;-88
2022/08/07 06:52:13;;;;;;;2.55;1.15;;;;;;;;;;10091649;23;20031;-89
2022/08/07 06:56:38;;;;;;;1.65;1.38;;;;;;;;;;10105331;23;20026;-88
2022/08/07 07:00:44;;;;;;;2.75;1.73;;;;;;;;;;10106935;23;20032;-87
2022/08/07 07:04:49;;;;;;;1.35;1.00;;;;;;;;;;10091309;23;20105;-89
2022/08/07 07:08:52;;;;;;;3.05;1.35;;;;;;;;;;10089349;23;20050;-85
2022/08/07 07:13:00;;;;;;;1.70;1.40;;;;;;;;;;10089583;23;20041;-86
2022/08/07 07:17:08;;;;;;;3.78;2.03;;;;;;;;;;10105416;23;20029;-85
2022/08/07 07:21:17;;;;;;;2.33;1.00;;;;;;;;;;10089886;23;20058;-86
2022/08/07 07:25:21;;;;;;;4.13;1.10;;;;;;;;;;10095692;23;20026;-85
2022/08/07 07:29:32;;;;;;;2.65;1.25;;;;;;;;;;10089862;23;20022;-87
2022/08/07 07:33:38;;;;;;;3.75;1.30;;;;;;;;;;10105809;23;20081;-86
2022/08/07 07:37:45;;;;;;;2.90;0.90;;;;;;;;;;10090290;23;20033;-86
2022/08/07 07:41:51;;;;;;;4.07;1.38;;;;;;;;;;10088739;23;20352;-85
2022/08/07 07:45:55;;;;;;;1.70;1.02;;;;;;;;;;10108882;23;20335;-85
2022/08/07 07:50:00;;;;;;;2.33;1.20;;;;;;;;;;10093409;23;20018;-86
2022/08/07 07:54:07;;;;;;;2.60;1.13;;;;;;;;;;10096440;23;20585;-84
2022/08/07 07:58:11;;;;;;;3.00;1.10;;;;;;;;;;10108989;23;20029;-83
2022/08/07 08:02:16;;;;;;;3.50;1.25;;;;;;;;;;10094168;23;20105;-85
2022/08/07 08:06:20;;;;;;;2.90;1.10;;;;;;;;;;10093704;23;20068;-85
2022/08/07 08:10:24;;;;;;;1.98;1.05;;;;;;;;;;10094283;23;20351;-84
2022/08/07 08:14:27;;;;;;;2.70;1.20;;;;;;;;;;10093815;23;20022;-85
2022/08/07 08:18:30;;;;;;;2.33;1.10;;;;;;;;;;10093329;23;20025;-85
2022/08/07 08:27:07;;;;;;;3.25;1.17;;;;;;;;;;10110067;23;20022;-86
2022/08/07 08:31:21;;;;;;;2.60;1.30;;;;;;;;;;10108218;23;20022;-87
2022/08/07 08:35:27;;;;;;;2.17;1.30;;;;;;;;;;10109871;23;20019;-85
2022/08/07 08:39:30;;;;;;;2.72;1.25;;;;;;;;;;10098467;23;20339;-85
2022/08/07 08:43:44;;;;;;;5.50;1.40;;;;;;;;;;10093857;23;20351;-85
2022/08/07 08:48:00;;;;;;;2.03;1.30;;;;;;;;;;10093520;23;20332;-85
2022/08/07 08:52:11;;;;;;;5.45;1.60;;;;;;;;;;10106157;23;20019;-87
2022/08/07 08:56:21;;;;;;;3.00;1.50;;;;;;;;;;10108994;23;20348;-87
2022/08/07 09:00:28;;;;;;;2.33;1.27;;;;;;;;;;10109448;23;20018;-86
2022/08/07 09:04:41;;;;;;;2.42;1.15;;;;;;;;;;10109429;23;20026;-85
2022/08/07 09:08:54;;;;;;;2.80;1.27;;;;;;;;;;10109405;23;20340;-85
2022/08/07 09:13:20;;;;;;;4.53;1.42;;;;;;;;;;10093608;23;20026;-86
2022/08/07 09:17:47;;;;;;;2.42;1.33;;;;;;;;;;10092534;23;20447;-86
2022/08/07 09:27:31;;;;;;;2.67;1.20;;;;;;;;;;10083980;23;20035;-86
2022/08/07 09:31:44;;;;;;;1.65;1.15;;;;;;;;;;10107183;23;20458;-85
2022/08/07 09:36:31;;;;;;;1.75;1.25;;;;;;;;;;10107351;23;20027;-85
2022/08/07 09:40:55;;;;;;;3.50;1.20;;;;;;;;;;10107122;23;20028;-85
2022/08/07 09:45:20;;;;;;;2.40;1.25;;;;;;;;;;10109047;23;20466;-85
2022/08/07 09:49:40;;;;;;;3.85;1.15;;;;;;;;;;10107397;23;20050;-86
2022/08/07 09:53:51;;;;;;;1.48;1.08;;;;;;;;;;10097817;23;20053;-85
2022/08/07 09:58:25;;;;;;;1.95;1.00;;;;;;;;;;10091298;23;20042;-85
2022/08/07 10:03:19;;;;;;;1.67;1.23;;;;;;;;;;10091264;23;20518;-86
2022/08/07 10:08:00;;;;;;;1.92;1.10;;;;;;;;;;10107760;23;20025;-84
2022/08/07 10:18:00;;;;;;;2.60;1.00;;;;;;;;;;10090422;23;20412;-87
2022/08/07 10:22:51;;;;;;;5.55;1.42;;;;;;;;;;10074265;23;20146;-84
2022/08/07 10:27:48;;;;;;;2.38;1.20;;;;;;;;;;10106331;23;20023;-84
2022/08/07 10:32:46;;;;;;;2.70;1.30;;;;;;;;;;10088717;23;20023;-83
2022/08/07 10:37:55;;;;;;;3.35;1.40;;;;;;;;;;10090851;23;20019;-84
2022/08/07 10:42:18;;;;;;;2.97;1.27;;;;;;;;;;10107628;23;20018;-84
2022/08/07 10:46:42;;;;;;;1.95;1.27;;;;;;;;;;10105054;23;20464;-85
2022/08/07 10:50:52;;;;;;;2.65;1.10;;;;;;;;;;10088680;23;20026;-84
2022/08/07 10:55:08;;;;;;;3.17;1.15;;;;;;;;;;10088421;23;20117;-87
2022/08/07 10:59:21;;;;;;;2.08;1.00;;;;;;;;;;10090900;23;20519;-84
2022/08/07 11:03:39;;;;;;;2.78;1.02;;;;;;;;;;10090508;23;20019;-83
2022/08/07 11:07:50;;;;;;;1.85;1.20;;;;;;;;;;10106879;23;20033;-87
2022/08/07 11:12:01;;;;;;;2.85;1.25;;;;;;;;;;10106631;23;20391;-88
2022/08/07 11:16:11;;;;;;;3.05;1.30;;;;;;;;;;10106643;23;20352;-86
2022/08/07 11:20:33;;;;;;;2.45;1.00;;;;;;;;;;10106429;23;20018;-87
2022/08/07 11:24:48;;;;;;;1.23;1.10;;;;;;;;;;10087985;23;20034;-85
2022/08/07 11:28:57;;;;;;;1.55;1.23;;;;;;;;;;10090387;23;20022;-84
2022/08/07 11:33:07;;;;;;;1.33;1.10;;;;;;;;;;10106541;23;20483;-86
2022/08/07 11:37:34;;;;;;;3.15;1.20;;;;;;;;;;10091509;23;20046;-86
2022/08/07 11:42:00;;;;;;;2.85;1.33;;;;;;;;;;10107531;23;20023;-85
2022/08/07 11:46:17;;;;;;;3.05;1.13;;;;;;;;;;10090760;23;20026;-85
2022/08/07 11:50:35;;;;;;;3.28;1.30;;;;;;;;;;10107585;23;20462;-86
2022/08/07 11:55:03;;;;;;;5.15;1.25;;;;;;;;;;10095101;23;20431;-86
2022/08/07 11:59:26;;;;;;;2.58;1.30;;;;;;;;;;10107164;23;20018;-87
2022/08/07 12:03:53;;;;;;;1.38;1.27;;;;;;;;;;10107428;23;20451;-87
2022/08/07 12:08:05;;;;;;;2.42;1.20;;;;;;;;;;10091103;23;20026;-87
2022/08/07 12:12:11;;;;;;;;;;;;;;;;;;10107568;23;20022;-88
2022/08/07 12:16:20;;;;;;;1.67;1.20;;;;;;;;;;10105683;23;19956;-90
2022/08/07 12:20:28;;;;;;;1.95;1.30;;;;;;;;;;10105499;23;20026;-87
2022/08/07 12:24:39;;;;;;;1.50;1.20;;;;;;;;;;10105614;23;20029;-88
2022/08/07 12:29:03;;;;;;;2.03;1.13;;;;;;;;;;10104496;23;20018;-89
2022/08/07 12:33:14;;;;;;;2.40;1.23;;;;;;;;;;10093070;23;20022;-86
2022/08/07 12:37:33;;;;;;;1.83;0.98;;;;;;;;;;10106872;23;20022;-85
2022/08/07 12:41:59;;;;;;;5.13;1.45;;;;;;;;;;10092837;23;20077;-87
2022/08/07 12:46:45;;;;;;;2.80;1.13;;;;;;;;;;10107780;23;20531;-86
2022/08/07 12:51:03;;;;;;;2.47;1.10;;;;;;;;;;10092404;23;20102;-86
2022/08/07 12:55:19;;;;;;;1.25;0.80;;;;;;;;;;10090195;23;20456;-89
2022/08/07 12:59:37;;;;;;;2.80;1.27;;;;;;;;;;10091037;23;20439;-87
2022/08/07 13:04:08;;;;;;;2.88;0.90;;;;;;;;;;10092598;23;20097;-86
2022/08/07 13:08:37;;;;;;;4.28;1.30;;;;;;;;;;10107385;23;20074;-86
2022/08/07 13:12:52;;;;;;;2.35;1.20;;;;;;;;;;10089522;23;20082;-88
2022/08/07 13:17:01;;;;;;;1.73;1.23;;;;;;;;;;10092252;23;20074;-87
2022/08/07 13:21:14;;;;;;;2.80;1.17;;;;;;;;;;10108412;23;20099;-87
2022/08/07 13:25:29;;;;;;;1.17;1.00;;;;;;;;;;10106585;23;20018;-89
2022/08/07 13:29:42;;;;;;;1.75;1.00;;;;;;;;;;10108695;23;20022;-89
2022/08/07 13:33:51;;;;;;;2.40;1.08;;;;;;;;;;10108883;23;20069;-86
2022/08/07 13:38:04;;;;;;;2.33;1.20;;;;;;;;;;10108395;23;20038;-87
2022/08/07 13:42:13;;;;;;;1.77;1.00;;;;;;;;;;10106764;23;20022;-87
2022/08/07 13:46:18;;;;;;;0.95;0.85;;;;;;;;;;10108615;23;20025;-85
2022/08/07 13:50:25;;;;;;;2.25;1.13;;;;;;;;;;10108123;23;20443;-85
2022/08/07 13:54:32;;;;;;;2.63;0.90;;;;;;;;;;10092033;23;20050;-86
2022/08/07 13:59:05;;;;;;;2.03;1.25;;;;;;;;;;10111728;23;20018;-86
2022/08/07 14:07:33;;;;;;;1.88;1.33;;;;;;;;;;10097939;23;20038;-85
2022/08/07 14:11:49;;;;;;;1.73;1.10;;;;;;;;;;10116955;23;20045;-85
2022/08/07 14:15:56;;;;;;;1.95;1.10;;;;;;;;;;10110275;23;20028;-86
2022/08/07 14:20:09;;;;;;;4.55;1.15;;;;;;;;;;10092460;23;20113;-87
2022/08/07 14:24:25;;;;;;;1.20;1.10;;;;;;;;;;10108989;23;20460;-87
2022/08/07 14:28:30;;;;;;;1.45;0.82;;;;;;;;;;10090509;23;20050;-85
2022/08/07 14:32:44;;;;;;;0.93;0.90;;;;;;;;;;10107888;23;20026;-87
2022/08/07 14:36:49;;;;;;;1.85;1.00;;;;;;;;;;10090776;23;20474;-86
2022/08/07 14:40:56;;;;;;;1.70;1.00;;;;;;;;;;10089297;23;20018;-86
2022/08/07 14:45:06;;;;;;;2.97;1.15;;;;;;;;;;10105841;23;20033;-85
2022/08/07 14:49:10;;;;;;;4.20;1.10;;;;;;;;;;10108358;23;20041;-86
2022/08/07 14:53:19;;;;;;;3.45;1.35;;;;;;;;;;10090133;23;20029;-85
2022/08/07 14:57:25;;;;;;;1.83;1.05;;;;;;;;;;10108287;23;20022;-88
2022/08/07 15:01:34;;;;;;;5.20;1.20;;;;;;;;;;10091371;23;20467;-86
2022/08/07 15:05:39;;;;;;;1.08;1.00;;;;;;;;;;10107871;23;20018;-86
2022/08/07 15:09:45;;;;;;;2.42;1.20;;;;;;;;;;10108606;23;20018;-86
2022/08/07 15:13:55;;;;;;;1.27;1.10;;;;;;;;;;10107012;23;20027;-87
2022/08/07 15:18:04;;;;;;;2.53;1.10;;;;;;;;;;10106922;23;20544;-86
2022/08/07 15:22:08;;;;;;;1.83;1.15;;;;;;;;;;10108450;23;20340;-89
2022/08/07 15:26:14;;;;;;;3.70;1.10;;;;;;;;;;10092403;23;20030;-86
2022/08/07 15:30:35;;;;;;;3.78;1.20;;;;;;;;;;10110242;23;20022;-92
2022/08/07 15:34:45;;;;;;;2.88;0.93;;;;;;;;;;10073518;23;20081;-94
2022/08/07 15:38:49;;;;;;;1.70;1.10;;;;;;;;;;10067519;23;20022;-86
2022/08/07 15:42:57;;;;;;;1.42;1.08;;;;;;;;;;10091572;23;20022;-88
2022/08/07 15:47:06;;;;;;;1.48;1.17;;;;;;;;;;10105736;23;20097;-86
2022/08/07 15:51:15;;;;;;;1.50;1.10;;;;;;;;;;10095125;23;20022;-87
2022/08/07 15:55:21;;;;;;;4.05;1.55;;;;;;;;;;10089742;23;20037;-86
2022/08/07 15:59:28;;;;;;;3.20;1.17;;;;;;;;;;10090643;23;20316;-86
2022/08/07 16:03:34;;;;;;;3.88;1.33;;;;;;;;;;10107473;23;20029;-86
2022/08/07 16:07:46;;;;;;;2.17;1.30;;;;;;;;;;10107865;23;20029;-86
2022/08/07 16:12:03;;;;;;;2.67;1.20;;;;;;;;;;10094034;23;20033;-86
2022/08/07 16:16:17;;;;;;;3.25;1.25;;;;;;;;;;10109119;23;20054;-87
2022/08/07 16:20:48;;;;;;;6.18;1.20;;;;;;;;;;10106202;23;20029;-88
2022/08/07 16:25:03;;;;;;;3.58;1.30;;;;;;;;;;10088449;23;20325;-88
2022/08/07 16:29:26;;;;;;;1.55;1.23;;;;;;;;;;10106764;23;20350;-89
2022/08/07 16:33:31;;;;;;;4.32;1.40;;;;;;;;;;10107904;23;20014;-91
2022/08/07 16:38:05;;;;;;;3.45;1.35;;;;;;;;;;10090638;23;20053;-89
2022/08/07 16:42:46;;;;;;;2.15;1.30;;;;;;;;;;10091165;23;20076;-91
2022/08/07 16:47:11;;;;;;;1.63;1.33;;;;;;;;;;10107802;23;20455;-91
2022/08/07 16:51:26;;;;;;;4.13;1.35;;;;;;;;;;10107516;23;20026;-90
2022/08/07 16:55:36;;;;;;;2.50;1.30;;;;;;;;;;10104608;23;20045;-91
2022/08/07 16:59:54;;;;;;;8.85;1.65;;;;;;;;;;10089909;23;20026;-90
2022/08/07 17:04:11;;;;;;;1.80;1.33;;;;;;;;;;10106528;23;20022;-90
2022/08/07 17:08:34;;;;;;;2.35;1.23;;;;;;;;;;10109096;23;20023;-90
2022/08/07 17:12:47;;;;;;;3.08;1.25;;;;;;;;;;10089271;23;20022;-91
2022/08/07 17:16:56;;;;;;;1.20;1.10;;;;;;;;;;10104808;23;20027;-90
2022/08/07 17:21:02;;;;;;;2.88;1.38;;;;;;;;;;10106090;23;20029;-90
2022/08/07 17:25:14;;;;;;;3.25;1.45;;;;;;;;;;10107227;23;20459;-92
2022/08/07 17:29:23;;;;;;;1.30;1.20;;;;;;;;;;10106257;23;20022;-90
2022/08/07 17:33:32;;;;;;;1.42;1.20;;;;;;;;;;10091691;23;20018;-90
2022/08/07 17:37:45;;;;;;;3.58;1.50;;;;;;;;;;10108164;23;20041;-91
2022/08/07 17:41:57;;;;;;;4.38;1.60;;;;;;;;;;10106825;23;20023;-90
2022/08/07 17:46:13;;;;;;;3.15;1.55;;;;;;;;;;10091538;23;20022;-90
2022/08/07 17:50:22;;;;;;;2.47;1.38;;;;;;;;;;10108093;23;20018;-90
2022/08/07 17:54:35;;;;;;;1.90;1.60;;;;;;;;;;10091820;23;20030;-92
2022/08/07 17:58:46;;;;;;;3.15;1.38;;;;;;;;;;10107155;23;20443;-91
2022/08/07 18:02:56;;;;;;;2.42;1.63;;;;;;;;;;10107530;23;20026;-91
2022/08/07 18:07:14;;;;;;;4.35;1.67;;;;;;;;;;10107509;23;20033;-90
2022/08/07 18:11:24;;;;;;;2.33;1.67;;;;;;;;;;10091693;23;20439;-91
2022/08/07 18:20:09;;;;;;;6.00;2.30;;;;;;;;;;10085268;23;20026;-91
2022/08/07 18:24:21;;;;;;;3.03;1.88;;;;;;;;;;10106814;23;20093;-92
2022/08/07 18:28:36;;;;;;;3.92;1.70;;;;;;;;;;10066067;23;20022;-90
2022/08/07 18:33:29;;;;;;;2.10;1.65;;;;;;;;;;10091449;23;20018;-91
2022/08/07 18:37:51;;;;;;;2.53;1.90;;;;;;;;;;10092565;23;20095;-92
2022/08/07 18:42:10;;;;;;;3.78;2.50;;;;;;;;;;10092579;23;20023;-93
2022/08/07 18:46:21;;;;;;;7.82;3.22;;;;;;;;;;10108944;23;20037;-94
2022/08/07 18:51:04;;;;;;;7.53;3.22;;;;;;;;;;10100206;23;20348;-89
2022/08/07 18:55:37;;;;;;;5.70;3.75;;;;;;;;;;10019786;23;20063;-92
2022/08/07 19:00:24;;;;;;;5.00;2.97;;;;;;;;;;10100607;23;20018;-93
2022/08/07 19:04:56;;;;;;;5.13;3.60;;;;;;;;;;9887991;24;20335;-95
2022/08/07 19:09:10;;;;;;;7.03;4.55;;;;;;;;;;9909034;24;20450;-94
2022/08/07 19:13:36;;;;;;;6.22;4.65;;;;;;;;;;9914611;24;20024;-94
2022/08/07 19:17:59;;;;;;;6.88;4.72;;;;;;;;;;9914220;24;20102;-92
2022/08/07 19:22:39;;;;;;;6.97;4.78;;;;;;;;;;9901966;24;20032;-88
2022/08/07 19:26:54;;;;;;;6.07;4.43;;;;;;;;;;9909609;24;20028;-92
2022/08/07 19:31:32;;;;;;;6.80;4.40;;;;;;;;;;9917574;24;20024;-93
2022/08/07 19:35:53;;;;;;;7.82;4.18;;;;;;;;;;9876476;24;20028;-93
2022/08/07 19:40:22;;;;;;;6.10;4.30;;;;;;;;;;9950544;23;20355;-89
2022/08/07 19:44:36;;;;;;;7.50;4.45;;;;;;;;;;10115073;23;20026;-94
2022/08/07 19:49:18;;;;;;;5.90;4.22;;;;;;;;;;10117528;23;20478;-94
2022/08/07 19:53:46;;;;;;;6.30;4.40;;;;;;;;;;10093716;23;20057;-89
2022/08/07 19:58:04;;;;;;;5.80;3.75;;;;;;;;;;10094648;23;20101;-89
2022/08/07 20:02:38;;;;;;;5.15;3.60;;;;;;;;;;10093525;23;20051;-91
2022/08/07 20:06:42;;;;;;;5.43;3.22;;;;;;;;;;10087477;23;20029;-91
2022/08/07 20:10:57;;;;;;;6.82;4.40;;;;;;;;;;10093895;23;20025;-93
2022/08/07 20:15:03;;;;;;;4.82;3.28;;;;;;;;;;10093911;23;20022;-90
2022/08/07 20:19:21;;;;;;;6.45;3.30;;;;;;;;;;10109476;23;20440;-90
2022/08/07 20:23:35;;;;;;;7.05;2.80;;;;;;;;;;10093474;23;20098;-89
2022/08/07 20:27:42;;;;;;;5.07;3.30;;;;;;;;;;10110019;23;20022;-92
2022/08/07 20:31:47;;;;;;;3.72;2.70;;;;;;;;;;10094305;23;20027;-90
2022/08/07 20:35:53;;;;;;;3.78;2.85;;;;;;;;;;10108265;23;20343;-90
2022/08/07 20:39:58;;;;;;;5.15;2.70;;;;;;;;;;10093419;23;20359;-89
2022/08/07 20:44:03;;;;;;;3.67;2.60;;;;;;;;;;10093872;23;20018;-93
2022/08/07 20:48:10;;;;;;;3.83;2.53;;;;;;;;;;10093442;23;20447;-91
2022/08/07 20:52:18;;;;;;;3.17;2.35;;;;;;;;;;10106020;23;20554;-92
2022/08/07 20:56:24;;;;;;;5.68;2.53;;;;;;;;;;10109293;23;20467;-92
2022/08/07 21:00:38;;;;;;;8.45;2.22;;;;;;;;;;10109675;23;20049;-90
2022/08/07 21:04:42;;;;;;;4.47;2.40;;;;;;;;;;10109764;23;20018;-91
2022/08/07 21:08:59;;;;;;;5.25;2.50;;;;;;;;;;10096101;23;20030;-90
2022/08/07 21:13:06;;;;;;;3.10;2.03;;;;;;;;;;10093422;23;20018;-92
2022/08/07 21:17:15;;;;;;;3.45;2.70;;;;;;;;;;10109700;23;20022;-91
2022/08/07 21:21:20;;;;;;;3.33;2.15;;;;;;;;;;10109313;23;20152;-90
2022/08/07 21:25:31;;;;;;;4.05;2.50;;;;;;;;;;10093604;23;20025;-92
2022/08/07 21:29:44;;;;;;;3.72;2.50;;;;;;;;;;10108988;23;20023;-90
2022/08/07 21:33:55;;;;;;;4.90;2.00;;;;;;;;;;10108482;23;20098;-88
2022/08/07 21:38:07;;;;;;;2.83;2.10;;;;;;;;;;10109011;23;20490;-88
2022/08/07 21:42:18;;;;;;;3.42;2.40;;;;;;;;;;10109098;23;20596;-92
2022/08/07 21:46:26;;;;;;;5.55;2.72;;;;;;;;;;10093051;23;20656;-92
2022/08/07 21:50:39;;;;;;;2.60;2.15;;;;;;;;;;10092829;23;20030;-90
2022/08/07 21:54:56;;;;;;;4.38;2.40;;;;;;;;;;10095181;23;20381;-92
2022/08/07 21:59:06;;;;;;;3.55;2.20;;;;;;;;;;10092218;23;20022;-91
2022/08/07 22:03:14;;;;;;;3.17;2.00;;;;;;;;;;10092090;23;20026;-92
2022/08/07 22:07:24;;;;;;;3.38;2.10;;;;;;;;;;10108132;23;20018;-92
2022/08/07 22:11:29;;;;;;;3.20;1.88;;;;;;;;;;10107977;23;20022;-86
2022/08/07 22:15:39;;;;;;;3.40;2.20;;;;;;;;;;10091560;23;20018;-91
2022/08/07 22:20:08;;;;;;;2.55;1.92;;;;;;;;;;10108426;23;20018;-89
2022/08/07 22:24:16;;;;;;;2.05;1.80;;;;;;;;;;10092425;23;20118;-92
2022/08/07 22:28:25;;;;;;;7.07;2.30;;;;;;;;;;10108488;23;20026;-90
2022/08/07 22:32:38;;;;;;;4.13;2.03;;;;;;;;;;10108408;23;20022;-90
2022/08/07 22:36:47;;;;;;;2.72;2.22;;;;;;;;;;10108367;23;20443;-89
2022/08/07 22:40:58;;;;;;;3.55;2.08;;;;;;;;;;10108284;23;20097;-88
2022/08/07 22:45:04;;;;;;;3.00;1.70;;;;;;;;;;10091760;23;20101;-89
2022/08/07 22:49:18;;;;;;;2.83;1.80;;;;;;;;;;10092047;23;20093;-90
2022/08/07 22:53:42;;;;;;;3.25;2.00;;;;;;;;;;10092035;23;20030;-93
2022/08/07 22:58:11;;;;;;;3.60;2.15;;;;;;;;;;10109236;23;20451;-92
2022/08/07 23:02:37;;;;;;;3.22;1.98;;;;;;;;;;10109489;23;20054;-92
2022/08/07 23:06:54;;;;;;;2.85;1.70;;;;;;;;;;10093907;23;20023;-92
2022/08/07 23:11:07;;;;;;;3.92;1.55;;;;;;;;;;10092067;23;20032;-91
2022/08/07 23:15:20;;;;;;;2.90;1.80;;;;;;;;;;10091540;23;20022;-91
2022/08/07 23:24:40;;;;;;;6.38;2.10;;;;;;;;;;10022951;23;20106;-92
2022/08/07 23:29:08;;;;;;;3.78;2.00;;;;;;;;;;10070634;23;20048;-91
2022/08/07 23:33:30;;;;;;;2.42;1.80;;;;;;;;;;10106517;23;20034;-91
2022/08/07 23:38:10;;;;;;;2.20;1.80;;;;;;;;;;10107932;23;20022;-91
2022/08/07 23:42:23;;;;;;;5.53;2.25;;;;;;;;;;10091039;23;20097;-91
2022/08/07 23:46:54;;;;;;;2.33;1.90;;;;;;;;;;10107361;23;20022;-89
2022/08/07 23:51:02;;;;;;;3.55;2.10;;;;;;;;;;10090124;23;20025;-90
2022/08/07 23:55:16;;;;;;;3.72;2.13;;;;;;;;;;10092247;23;20022;-89
2022/08/07 23:59:22;;;;;;;3.30;2.30;;;;;;;;;;10105549;23;20049;-89
